Time;durP1;ratioP1;P1;durP2;ratioP2;P2;SDS_P1;SDS_P2;PMS_P1;PMS_P2;Temp;Humidity;BMP_temperature;BMP_pressure;BME280_temperature;BME280_humidity;BME280_pressure;Samples;Min_cycle;Max_cycle;Signal;HPM_P1;HPM_P2
2022/11/06 00:01:05;;;;;;;35.03;10.30;;;8.20;55.60;;;;;;20571;6734;312369;-85
2022/11/06 00:03:41;;;;;;;95.23;10.30;;;8.60;53.90;;;;;;20886;6765;119157;-86
2022/11/06 00:09:12;;;;;;;553.10;23.57;;;8.50;54.50;;;;;;20936;6733;117077;-87
2022/11/06 00:11:49;;;;;;;440.37;19.63;;;8.30;54.70;;;;;;20393;6815;117583;-85
2022/11/06 00:14:25;;;;;;;210.20;13.00;;;8.00;55.30;;;;;;20852;6800;118009;-87
2022/11/06 00:17:00;;;;;;;239.17;13.43;;;7.70;56.00;;;;;;20853;6753;119918;-85
2022/11/06 00:19:37;;;;;;;559.73;23.43;;;7.50;56.60;;;;;;20812;6753;118645;-85
2022/11/06 00:22:23;;;;;;;548.37;21.55;;;7.40;57.10;;;;;;20640;6736;336433;-85
2022/11/06 00:24:49;;;;;;;141.18;14.52;;;8.10;56.50;;;;;;20741;6730;306252;-85
2022/11/06 00:27:26;;;;;;;146.65;11.57;;;8.10;55.80;;;;;;20649;6741;276013;-86
2022/11/06 00:30:03;;;;;;;34.22;9.63;;;8.40;54.40;;;;;;20627;6744;306738;-87
2022/11/06 00:32:41;;;;;;;112.83;12.57;;;8.80;52.90;;;;;;20707;6740;276525;-85
2022/11/06 00:35:17;;;;;;;9.50;8.70;;;8.90;52.80;;;;;;20694;6731;294745;-84
2022/11/06 00:37:53;;;;;;;50.97;9.38;;;8.90;52.70;;;;;;20643;6746;335723;-86
2022/11/06 00:40:29;;;;;;;8.20;7.70;;;9.00;52.70;;;;;;20527;6750;279316;-85
2022/11/06 00:43:04;;;;;;;8.60;8.00;;;9.10;52.30;;;;;;20757;6725;276965;-85
2022/11/06 00:45:40;;;;;;;67.07;10.57;;;9.10;52.00;;;;;;20774;6720;307513;-85
2022/11/06 00:48:15;;;;;;;21.93;8.10;;;9.20;51.30;;;;;;20935;6735;120682;-86
2022/11/06 00:50:57;;;;;;;30.70;7.53;;;8.80;52.20;;;;;;20866;6725;117211;-85
2022/11/06 00:53:36;;;;;;;;;;;;;;;;;;;;;
2022/11/06 00:56:07;;;;;;;7.03;6.60;;;7.60;54.30;;;;;;20987;6710;118256;-86
2022/11/06 00:58:45;;;;;;;7.57;6.90;;;7.40;54.50;;;;;;21025;6710;116457;-86
2022/11/06 01:01:20;;;;;;;6.50;6.10;;;7.40;55.00;;;;;;20874;6710;118243;-85
2022/11/06 01:03:56;;;;;;;7.77;7.27;;;7.20;55.50;;;;;;20942;6732;117340;-86
2022/11/06 01:06:33;;;;;;;6.73;6.30;;;7.00;55.80;;;;;;21008;6717;118418;-87
2022/11/06 01:09:08;;;;;;;6.90;6.50;;;6.90;56.20;;;;;;21009;6717;116635;-86
2022/11/06 01:11:44;;;;;;;8.10;7.60;;;6.90;56.50;;;;;;20599;6721;307890;-88
2022/11/06 01:14:20;;;;;;;7.27;6.87;;;7.10;56.30;;;;;;20923;6725;117949;-89
2022/11/06 01:16:56;;;;;;;53.42;8.00;;;7.20;56.10;;;;;;20715;6724;335493;-86
2022/11/06 01:19:32;;;;;;;6.90;6.50;;;7.40;55.00;;;;;;20972;6724;118345;-86
2022/11/06 01:22:08;;;;;;;24.10;6.80;;;7.40;55.00;;;;;;20918;6725;116635;-86
2022/11/06 01:24:44;;;;;;;10.38;6.70;;;7.40;55.60;;;;;;20476;6769;306464;-85
2022/11/06 01:27:19;;;;;;;50.17;7.70;;;7.30;55.50;;;;;;20969;6725;116756;-87
2022/11/06 01:29:55;;;;;;;164.67;10.30;;;7.40;55.40;;;;;;21043;6624;116263;-87
2022/11/06 01:32:31;;;;;;;188.87;9.37;;;7.20;55.80;;;;;;20954;6755;117328;-87
2022/11/06 01:35:06;;;;;;;138.70;8.93;;;7.00;56.10;;;;;;20976;6746;120718;-88
2022/11/06 01:37:42;;;;;;;186.70;10.33;;;6.80;56.40;;;;;;20961;6745;116183;-88
2022/11/06 01:40:18;;;;;;;226.57;12.43;;;6.70;56.70;;;;;;20901;6744;124016;-88
2022/11/06 01:43:03;;;;;;;271.43;13.87;;;6.60;57.20;;;;;;20979;6791;116481;-96
2022/11/06 01:45:29;;;;;;;458.73;18.20;;;6.60;57.50;;;;;;20751;6735;310156;-85
2022/11/06 01:48:05;;;;;;;749.87;26.80;;;6.90;57.80;;;;;;20875;6750;118174;-89
2022/11/06 01:50:41;;;;;;;435.53;20.30;;;7.20;57.40;;;;;;20597;6745;307764;-90
2022/11/06 01:53:16;;;;;;;526.03;21.57;;;7.20;57.50;;;;;;20896;6747;117721;-87
2022/11/06 01:55:55;;;;;;;817.90;26.87;;;7.30;57.30;;;;;;20868;6756;117285;-87
2022/11/06 01:58:30;;;;;;;372.17;21.17;;;7.10;57.70;;;;;;20599;6762;337453;-87
2022/11/06 02:01:06;;;;;;;759.22;27.70;;;7.30;58.30;;;;;;20462;6776;280571;-87
2022/11/06 02:03:41;;;;;;;408.23;19.37;;;7.70;57.00;;;;;;20906;6744;118692;-86
2022/11/06 02:06:17;;;;;;;799.63;26.80;;;7.70;56.90;;;;;;20924;6721;117409;-87
2022/11/06 02:08:53;;;;;;;466.87;22.03;;;7.50;57.40;;;;;;20632;6751;310395;-87
2022/11/06 02:11:29;;;;;;;275.93;14.87;;;7.60;57.20;;;;;;20663;6776;119872;-86
2022/11/06 02:14:08;;;;;;;489.33;18.80;;;7.60;57.10;;;;;;20851;6751;118626;-87
2022/11/06 02:16:51;;;;;;;545.93;24.70;;;7.40;57.60;;;;;;20872;6758;117742;-86
2022/11/06 02:19:26;;;;;;;302.93;18.23;;;7.20;58.10;;;;;;20638;6758;281649;-86
2022/11/06 02:22:25;;;;;;;532.77;23.07;;;7.40;58.20;;;;;;20872;6747;122797;-86
2022/11/06 02:25:10;;;;;;;281.50;18.75;;;7.50;58.20;;;;;;20664;6738;311337;-85
2022/11/06 02:27:46;;;;;;;120.18;12.98;;;7.70;57.30;;;;;;20718;6740;277630;-86
2022/11/06 02:30:22;;;;;;;448.60;21.67;;;8.00;56.50;;;;;;20836;6737;117613;-86
2022/11/06 02:32:59;;;;;;;637.08;28.05;;;8.10;56.40;;;;;;20632;6746;335653;-86
2022/11/06 02:35:34;;;;;;;371.37;20.50;;;8.00;56.30;;;;;;20633;6771;278644;-86
2022/11/06 02:38:10;;;;;;;429.20;19.77;;;8.30;55.40;;;;;;20823;6754;119042;-87
2022/11/06 02:40:46;;;;;;;445.27;19.23;;;8.10;55.80;;;;;;20768;6759;117560;-86
2022/11/06 02:43:21;;;;;;;563.47;25.48;;;7.80;56.20;;;;;;20612;6759;335910;-86
2022/11/06 02:45:58;;;;;;;410.70;22.27;;;8.10;55.70;;;;;;20550;6773;307481;-85
2022/11/06 02:48:33;;;;;;;211.20;15.67;;;8.10;55.70;;;;;;20796;6781;118542;-86
2022/11/06 02:51:10;;;;;;;783.83;28.00;;;8.00;55.80;;;;;;20677;6766;118993;-87
2022/11/06 02:53:46;;;;;;;520.70;24.67;;;7.70;56.60;;;;;;20639;6759;277976;-86
2022/11/06 02:56:23;;;;;;;899.73;34.13;;;7.80;57.10;;;;;;20542;6772;306683;-87
2022/11/06 02:59:01;;;;;;;329.70;18.05;;;8.10;55.80;;;;;;20612;6750;281394;-86
2022/11/06 03:01:50;;;;;;;537.75;26.75;;;8.30;55.40;;;;;;20400;6776;283110;-86
2022/11/06 03:04:29;;;;;;;625.03;25.33;;;8.50;54.50;;;;;;20632;6751;277767;-85
2022/11/06 03:07:08;;;;;;;379.80;17.00;;;8.70;54.20;;;;;;20821;6809;117853;-86
2022/11/06 03:09:43;;;;;;;508.80;23.02;;;8.40;54.50;;;;;;20529;6775;280303;-86
2022/11/06 03:12:32;;;;;;;370.73;17.50;;;8.30;54.90;;;;;;20892;6732;119131;-87
2022/11/06 03:15:07;;;;;;;346.37;16.67;;;7.80;56.00;;;;;;20932;6717;118435;-85
2022/11/06 03:17:43;;;;;;;193.53;13.20;;;7.80;56.00;;;;;;20924;6731;117387;-85
2022/11/06 03:20:25;;;;;;;406.07;20.73;;;7.60;56.80;;;;;;20662;6712;307632;-85
2022/11/06 03:23:03;;;;;;;308.10;17.60;;;7.70;56.90;;;;;;20933;6716;118039;-85
2022/11/06 03:25:45;;;;;;;347.70;16.13;;;7.50;57.20;;;;;;20885;6742;116315;-85
2022/11/06 03:28:25;;;;;;;301.83;14.90;;;7.50;57.20;;;;;;20854;6745;118522;-85
2022/11/06 03:31:00;;;;;;;370.53;16.90;;;7.40;57.70;;;;;;20738;6749;123521;-87
2022/11/06 03:33:42;;;;;;;373.77;19.60;;;7.20;58.00;;;;;;20831;6757;119625;-86
2022/11/06 03:36:18;;;;;;;487.02;24.95;;;7.10;58.40;;;;;;20681;6746;306930;-86
2022/11/06 03:39:00;;;;;;;586.97;24.27;;;7.30;57.90;;;;;;20661;6746;305980;-86
2022/11/06 03:42:01;;;;;;;513.63;22.93;;;7.70;57.10;;;;;;21015;6647;122762;-96
2022/11/06 03:44:21;;;;;;;426.33;17.63;;;7.40;57.40;;;;;;20915;6729;117217;-86
2022/11/06 03:47:00;;;;;;;264.43;14.43;;;7.40;57.40;;;;;;20981;6722;117104;-85
2022/11/06 03:49:36;;;;;;;1010.60;30.23;;;7.20;57.90;;;;;;20968;6722;118739;-85
2022/11/06 03:52:11;;;;;;;572.67;22.47;;;7.00;58.30;;;;;;20840;6737;117563;-88
2022/11/06 03:54:50;;;;;;;489.93;17.77;;;6.90;58.60;;;;;;20898;6737;117707;-86
2022/11/06 03:57:26;;;;;;;487.33;18.60;;;6.80;58.80;;;;;;20760;6722;275931;-85
2022/11/06 04:00:01;;;;;;;472.83;18.73;;;7.00;57.90;;;;;;20799;6797;118218;-86
2022/11/06 04:02:37;;;;;;;353.53;14.40;;;7.10;57.60;;;;;;20884;6755;117936;-85
2022/11/06 04:05:19;;;;;;;318.88;13.82;;;6.90;57.90;;;;;;20649;6749;306399;-85
2022/11/06 04:13:59;;;;;;;308.87;14.70;;;7.30;55.90;;;;;;20704;6732;290183;-86
2022/11/06 04:16:36;;;;;;;66.77;9.40;;;7.60;54.50;;;;;;20650;6747;303496;-86
2022/11/06 04:19:12;;;;;;;400.20;14.03;;;7.80;54.20;;;;;;20848;6766;116952;-87
2022/11/06 04:22:17;;;;;;;166.10;10.73;;;7.60;54.60;;;;;;20715;6833;119677;-96
2022/11/06 04:28:29;;;;;;;163.60;10.87;;;6.70;57.00;;;;;;20868;6754;120751;-86
2022/11/06 04:31:11;;;;;;;215.30;13.13;;;6.60;57.00;;;;;;20783;6746;117511;-85
2022/11/06 04:34:07;;;;;;;;;;;;;;;;;;;;;
2022/11/06 04:36:41;;;;;;;570.10;18.53;;;6.40;58.20;;;;;;20977;6722;117366;-85
2022/11/06 04:39:50;;;;;;;642.40;21.33;;;6.40;58.70;;;;;;20941;6737;118031;-85
2022/11/06 04:42:32;;;;;;;610.63;24.07;;;6.30;58.80;;;;;;20772;6722;304792;-85
2022/11/06 04:45:19;;;;;;;737.90;28.20;;;7.20;56.30;;;;;;20778;6722;304359;-85
2022/11/06 04:47:49;;;;;;;439.17;20.63;;;7.10;56.10;;;;;;20740;6737;304884;-86
2022/11/06 04:50:24;;;;;;;837.03;29.77;;;7.50;55.60;;;;;;20920;6722;118478;-86
2022/11/06 04:53:00;;;;;;;276.30;14.50;;;7.40;55.80;;;;;;21002;6721;117066;-86
2022/11/06 04:55:46;;;;;;;240.50;14.25;;;7.10;56.40;;;;;;20677;6742;332548;-85
2022/11/06 04:58:22;;;;;;;392.10;16.30;;;7.20;56.70;;;;;;20963;6730;117949;-85
2022/11/06 05:00:59;;;;;;;635.70;24.40;;;7.20;56.70;;;;;;20764;6742;121356;-87
2022/11/06 05:03:34;;;;;;;712.07;23.77;;;7.00;57.20;;;;;;20745;6736;279064;-85
2022/11/06 05:06:10;;;;;;;754.53;24.12;;;7.10;55.80;;;;;;20669;6746;335178;-85
2022/11/06 05:08:45;;;;;;;438.75;18.62;;;7.40;54.30;;;;;;20698;6749;339180;-85
2022/11/06 05:11:21;;;;;;;361.73;14.32;;;7.60;53.50;;;;;;20553;6749;337488;-87
2022/11/06 05:13:56;;;;;;;234.30;10.17;;;7.70;52.80;;;;;;20905;6741;118427;-86
2022/11/06 05:16:32;;;;;;;114.00;8.20;;;7.40;53.10;;;;;;20961;6730;116547;-86
2022/11/06 05:19:08;;;;;;;83.70;7.87;;;6.90;53.90;;;;;;20702;6741;302311;-85
2022/11/06 05:24:40;;;;;;;5.70;5.27;;;7.10;52.30;;;;;;20958;6735;117165;-85
2022/11/06 05:27:19;;;;;;;4.90;4.60;;;6.70;52.70;;;;;;20861;6747;116037;-86
2022/11/06 05:29:52;;;;;;;6.20;5.80;;;6.30;53.60;;;;;;20619;6760;308514;-86
2022/11/06 05:32:29;;;;;;;6.35;5.95;;;6.70;54.00;;;;;;20650;6759;279786;-87
2022/11/06 05:35:05;;;;;;;5.73;5.33;;;6.70;53.30;;;;;;20703;6759;116260;-86
2022/11/06 05:37:40;;;;;;;5.47;5.07;;;6.60;53.30;;;;;;20926;6742;117986;-86
2022/11/06 05:40:16;;;;;;;6.03;5.73;;;6.30;54.30;;;;;;20563;6764;294147;-85
2022/11/06 05:42:52;;;;;;;6.00;5.70;;;6.40;54.60;;;;;;20642;6760;336898;-86
2022/11/06 05:45:27;;;;;;;5.80;5.50;;;6.80;53.90;;;;;;20652;6766;335466;-86
2022/11/06 05:48:03;;;;;;;5.20;4.90;;;7.00;52.40;;;;;;20905;6746;117197;-87
2022/11/06 05:50:38;;;;;;;5.17;4.70;;;6.80;52.50;;;;;;20824;6746;117482;-85
2022/11/06 05:53:15;;;;;;;5.03;4.63;;;6.40;53.30;;;;;;20954;6731;116592;-86
2022/11/06 05:55:51;;;;;;;5.13;4.83;;;6.10;54.00;;;;;;20916;6744;116462;-84
2022/11/06 05:58:26;;;;;;;6.00;5.70;;;5.90;54.70;;;;;;20707;6739;305546;-84
2022/11/06 06:01:02;;;;;;;10.07;5.97;;;6.00;54.10;;;;;;20568;6746;307568;-85
2022/11/06 06:03:38;;;;;;;65.73;7.30;;;6.40;53.50;;;;;;20962;6728;116995;-85
2022/11/06 06:06:13;;;;;;;206.90;10.67;;;6.30;53.50;;;;;;20916;6741;140188;-84
2022/11/06 06:08:49;;;;;;;204.47;11.47;;;6.00;54.20;;;;;;20671;6760;305829;-87
2022/11/06 06:11:24;;;;;;;224.13;10.47;;;6.20;54.50;;;;;;20728;6754;118413;-84
2022/11/06 06:14:00;;;;;;;100.77;8.23;;;6.20;54.60;;;;;;20867;6742;120804;-84
2022/11/06 06:16:39;;;;;;;12.63;6.50;;;6.00;55.00;;;;;;20717;6742;334107;-84
2022/11/06 06:19:14;;;;;;;17.30;5.07;;;6.10;55.00;;;;;;20949;6737;115828;-84
2022/11/06 06:21:50;;;;;;;26.03;5.30;;;6.10;54.90;;;;;;20958;6738;116022;-84
2022/11/06 06:24:26;;;;;;;24.57;5.00;;;5.90;55.30;;;;;;20950;6731;118676;-84
2022/11/06 06:27:02;;;;;;;29.17;5.80;;;5.70;55.80;;;;;;20679;6742;308576;-84
2022/11/06 06:29:38;;;;;;;31.20;5.40;;;5.80;55.00;;;;;;20911;6731;117309;-86
2022/11/06 06:32:14;;;;;;;43.97;6.05;;;5.80;55.00;;;;;;20637;6798;339040;-87
2022/11/06 06:34:50;;;;;;;45.10;5.63;;;6.00;54.50;;;;;;20876;6742;116909;-90
2022/11/06 06:37:26;;;;;;;13.27;4.70;;;5.70;55.10;;;;;;20841;6746;117467;-85
2022/11/06 06:40:02;;;;;;;104.20;9.23;;;5.70;55.10;;;;;;20572;6742;336760;-87
2022/11/06 06:42:38;;;;;;;142.60;9.40;;;5.90;55.50;;;;;;20902;6732;119151;-86
2022/11/06 06:45:13;;;;;;;59.57;7.97;;;6.00;55.50;;;;;;20690;6731;286784;-86
2022/11/06 06:47:49;;;;;;;557.83;24.27;;;6.30;55.40;;;;;;20631;6739;308792;-87
2022/11/06 06:50:25;;;;;;;553.33;19.93;;;6.60;54.10;;;;;;20813;6739;117520;-88
2022/11/06 06:53:10;;;;;;;;;;;;;;;;;;;;;
2022/11/06 06:55:36;;;;;;;526.30;23.75;;;6.70;54.20;;;;;;20786;6702;335254;-87
2022/11/06 06:58:11;;;;;;;700.85;26.67;;;6.90;53.90;;;;;;20741;6723;306141;-86
2022/11/06 07:01:00;;;;;;;;;;;;;;;;;;;;;
2022/11/06 07:03:34;;;;;;;674.50;24.65;;;7.30;52.90;;;;;;20770;6752;305103;-91
2022/11/06 07:06:00;;;;;;;354.73;19.92;;;7.50;52.60;;;;;;20778;6711;334019;-88
2022/11/06 07:08:36;;;;;;;709.33;38.88;;;7.60;51.80;;;;;;20803;6711;275560;-90
2022/11/06 07:11:11;;;;;;;299.70;19.02;;;7.70;51.40;;;;;;20637;6711;310687;-88
2022/11/06 07:13:50;;;;;;;1426.57;48.17;;;7.80;51.10;;;;;;21013;6711;118284;-87
2022/11/06 07:16:31;;;;;;;173.37;16.00;;;7.50;51.50;;;;;;20785;6710;305605;-90
2022/11/06 07:18:58;;;;;;;400.50;22.17;;;7.30;51.80;;;;;;20809;6710;308288;-88
2022/11/06 07:21:33;;;;;;;386.10;25.10;;;7.40;51.90;;;;;;20628;6711;331486;-88
2022/11/06 07:24:09;;;;;;;327.70;17.42;;;7.60;51.90;;;;;;20771;6711;338227;-88
2022/11/06 07:26:45;;;;;;;223.70;16.30;;;7.70;52.00;;;;;;20829;6711;325299;-87
2022/11/06 07:29:20;;;;;;;629.80;21.43;;;7.80;51.50;;;;;;21041;6711;117147;-85
2022/11/06 07:31:56;;;;;;;538.73;22.10;;;7.60;52.00;;;;;;20484;6711;281091;-88
2022/11/06 07:34:32;;;;;;;506.37;17.97;;;7.50;52.70;;;;;;20737;6726;306821;-87
2022/11/06 07:37:08;;;;;;;512.83;21.07;;;7.50;52.60;;;;;;20985;6726;117601;-88
2022/11/06 07:39:43;;;;;;;573.90;19.80;;;7.50;52.40;;;;;;20878;6726;118456;-86
2022/11/06 07:42:19;;;;;;;278.83;13.77;;;7.20;53.20;;;;;;21021;6711;116980;-86
2022/11/06 07:44:55;;;;;;;144.67;12.13;;;7.00;54.10;;;;;;20817;6711;312557;-88
2022/11/06 07:47:30;;;;;;;433.50;19.80;;;7.20;54.40;;;;;;21034;6711;117070;-85
2022/11/06 07:50:07;;;;;;;269.93;14.97;;;7.30;54.40;;;;;;20954;6711;123406;-85
2022/11/06 07:52:43;;;;;;;106.90;9.20;;;7.20;54.80;;;;;;20977;6726;122603;-89
2022/11/06 07:55:18;;;;;;;431.03;14.83;;;7.10;55.80;;;;;;20682;6739;340858;-85
2022/11/06 07:57:54;;;;;;;276.00;13.10;;;7.40;54.60;;;;;;20751;6757;118544;-87
2022/11/06 08:00:46;;;;;;;322.33;15.23;;;7.50;54.40;;;;;;20834;6739;118303;-89
2022/11/06 08:03:22;;;;;;;96.83;14.03;;;7.50;54.70;;;;;;20981;6720;117111;-89
2022/11/06 08:05:59;;;;;;;162.87;23.17;;;7.40;55.10;;;;;;20749;6720;289096;-90
2022/11/06 08:08:34;;;;;;;193.13;18.75;;;7.60;54.90;;;;;;20725;6761;329910;-88
2022/11/06 08:11:10;;;;;;;163.57;11.57;;;8.10;54.20;;;;;;20828;6720;117468;-87
2022/11/06 08:13:46;;;;;;;235.10;11.93;;;8.30;54.20;;;;;;20622;6735;307841;-86
2022/11/06 08:16:22;;;;;;;165.70;11.13;;;8.30;54.20;;;;;;20672;6732;304619;-88
2022/11/06 08:18:57;;;;;;;177.90;14.90;;;8.60;54.10;;;;;;20693;6737;276920;-90
2022/11/06 08:21:42;;;;;;;84.47;8.73;;;8.90;52.80;;;;;;20751;6737;118612;-85
2022/11/06 08:24:09;;;;;;;22.00;7.93;;;8.80;53.10;;;;;;20832;6750;117232;-90
2022/11/06 08:26:46;;;;;;;124.93;10.43;;;8.50;53.90;;;;;;20720;6738;296359;-94
2022/11/06 08:29:22;;;;;;;50.10;7.10;;;8.60;53.90;;;;;;20742;6734;307636;-89
2022/11/06 08:31:59;;;;;;;42.90;6.30;;;8.80;53.40;;;;;;20892;6734;123301;-91
2022/11/06 08:34:37;;;;;;;14.30;6.87;;;8.90;53.00;;;;;;20696;6734;301394;-89
2022/11/06 08:37:18;;;;;;;12.83;5.17;;;9.00;53.20;;;;;;20934;6734;116809;-87
2022/11/06 08:39:55;;;;;;;61.50;8.02;;;8.90;53.40;;;;;;20695;6734;319635;-93
2022/11/06 08:42:32;;;;;;;27.07;6.90;;;9.00;51.60;;;;;;20711;6734;302871;-86
2022/11/06 08:45:22;;;;;;;7.73;5.23;;;9.20;50.90;;;;;;20942;6734;117761;-91
2022/11/06 08:47:46;;;;;;;10.70;6.60;;;9.00;51.30;;;;;;20684;6755;276813;-89
2022/11/06 08:50:21;;;;;;;6.70;6.23;;;9.00;52.00;;;;;;20621;6748;307592;-89
2022/11/06 08:52:57;;;;;;;5.90;5.50;;;9.30;52.80;;;;;;20961;6772;116596;-90
2022/11/06 08:55:34;;;;;;;5.10;4.80;;;9.30;53.00;;;;;;21040;6716;115723;-92
2022/11/06 08:58:19;;;;;;;;;;;;;;;;;;;;;
2022/11/06 09:00:45;;;;;;;6.50;6.10;;;9.40;53.50;;;;;;20668;6726;307122;-89
2022/11/06 09:03:21;;;;;;;6.03;5.73;;;10.00;54.00;;;;;;21005;6760;117057;-89
2022/11/06 09:05:57;;;;;;;7.05;6.65;;;10.00;53.30;;;;;;20789;6760;276084;-93
2022/11/06 09:08:33;;;;;;;7.10;6.70;;;10.30;52.80;;;;;;20727;6732;292800;-89
2022/11/06 09:11:09;;;;;;;7.80;7.30;;;10.70;51.60;;;;;;20669;6730;280711;-88
2022/11/06 09:13:45;;;;;;;6.00;5.60;;;11.10;51.60;;;;;;20916;6784;116885;-89
2022/11/06 09:16:31;;;;;;;6.63;6.23;;;10.80;52.10;;;;;;20950;6724;117729;-86
2022/11/06 09:18:58;;;;;;;7.00;6.55;;;10.80;52.10;;;;;;20752;6726;305424;-88
2022/11/06 09:21:36;;;;;;;7.20;6.80;;;11.20;52.30;;;;;;20624;6726;276481;-88
2022/11/06 09:24:18;;;;;;;6.55;6.15;;;11.20;52.40;;;;;;20692;6736;291816;-87
2022/11/06 09:26:47;;;;;;;6.20;5.90;;;11.60;52.30;;;;;;20707;6746;277239;-91
2022/11/06 09:29:24;;;;;;;5.83;5.53;;;12.00;51.70;;;;;;20802;6704;309375;-89
2022/11/06 09:31:59;;;;;;;6.00;5.70;;;12.00;51.20;;;;;;20668;6747;308591;-86
2022/11/06 09:34:37;;;;;;;5.37;5.07;;;12.00;51.00;;;;;;20959;6731;117261;-92
2022/11/06 09:37:23;;;;;;;;;;;;;;;;;;;;;
2022/11/06 09:39:49;;;;;;;5.87;5.57;;;12.10;51.50;;;;;;20778;6709;305727;-89
2022/11/06 09:42:34;;;;;;;6.23;5.93;;;12.10;51.50;;;;;;20754;6720;275944;-92
2022/11/06 09:45:21;;;;;;;6.05;5.75;;;12.40;51.30;;;;;;20475;6744;306233;-91
2022/11/06 09:48:00;;;;;;;6.30;5.90;;;12.40;51.20;;;;;;20830;6736;118821;-88
2022/11/06 09:50:29;;;;;;;6.30;5.90;;;12.20;51.30;;;;;;20890;6725;118010;-92
2022/11/06 09:53:18;;;;;;;6.30;5.90;;;11.90;51.80;;;;;;21003;6711;117135;-89
2022/11/06 09:55:54;;;;;;;7.40;7.00;;;11.60;52.40;;;;;;20823;6752;276804;-88
2022/11/06 09:58:33;;;;;;;6.20;5.90;;;11.70;51.80;;;;;;21040;6711;117055;-88
2022/11/06 10:01:21;;;;;;;5.53;5.13;;;11.70;51.90;;;;;;20717;6775;116780;-87
2022/11/06 10:03:57;;;;;;;5.50;5.20;;;11.60;52.40;;;;;;20913;6730;117911;-92
2022/11/06 10:06:33;;;;;;;6.40;6.00;;;11.40;52.70;;;;;;20816;6745;339229;-85
2022/11/06 10:09:08;;;;;;;6.45;6.15;;;11.60;51.60;;;;;;20819;6703;305818;-91
2022/11/06 10:11:57;;;;;;;5.23;4.93;;;12.00;50.50;;;;;;20840;6703;117189;-92
2022/11/06 10:14:49;;;;;;;;;;;;;;;;;;;;;
2022/11/06 10:17:34;;;;;;;5.67;5.30;;;11.70;50.90;;;;;;21057;6703;116155;-90
2022/11/06 10:20:16;;;;;;;5.20;4.90;;;11.50;51.40;;;;;;20979;6703;118019;-91
2022/11/06 10:23:11;;;;;;;;;;;;;;;;;;;;;
2022/11/06 10:25:47;;;;;;;6.03;5.63;;;10.90;51.60;;;;;;20956;6722;117958;-92
2022/11/06 10:28:55;;;;;;;7.00;6.60;;;10.80;52.10;;;;;;20736;6722;279089;-92
2022/11/06 10:32:04;;;;;;;;;;;;;;;;;;;;;
2022/11/06 10:34:33;;;;;;;6.43;6.13;;;10.90;51.60;;;;;;20654;6787;318936;-93
2022/11/06 10:37:32;;;;;;;;;;;;;;;;;;;;;
2022/11/06 10:39:58;;;;;;;5.90;5.60;;;11.20;51.30;;;;;;20332;6734;67914;-91
2022/11/06 10:42:34;;;;;;;6.32;6.03;;;11.00;51.60;;;;;;20635;6763;340301;-87
2022/11/06 10:45:09;;;;;;;6.50;6.20;;;11.10;50.70;;;;;;20723;6733;276910;-91
2022/11/06 10:47:55;;;;;;;6.23;5.83;;;11.50;50.30;;;;;;20985;6721;117387;-85
2022/11/06 10:50:31;;;;;;;3.00;2.90;;;11.50;50.50;;;;;;20901;6727;116171;-91
2022/11/06 10:53:12;;;;;;;4.43;4.23;;;11.30;51.40;;;;;;20964;6727;115767;-87
2022/11/06 10:55:55;;;;;;;4.93;4.63;;;11.60;52.50;;;;;;20751;6727;304896;-88
2022/11/06 10:58:30;;;;;;;4.80;4.60;;;11.60;52.50;;;;;;20762;6727;289289;-89
2022/11/06 11:01:06;;;;;;;4.90;4.70;;;12.20;51.30;;;;;;20600;6727;280858;-90
2022/11/06 11:03:41;;;;;;;4.47;4.28;;;12.70;50.00;;;;;;20748;6727;280639;-88
2022/11/06 11:06:18;;;;;;;4.80;4.50;;;13.50;48.40;;;;;;20626;6727;307236;-87
2022/11/06 11:09:04;;;;;;;4.43;4.23;;;13.50;48.30;;;;;;20914;6742;117704;-89
2022/11/06 11:11:40;;;;;;;4.50;4.30;;;13.50;48.70;;;;;;20764;6740;117560;-86
2022/11/06 11:14:13;;;;;;;5.40;5.10;;;13.10;49.90;;;;;;20853;6737;117126;-87
2022/11/06 11:16:55;;;;;;;5.07;4.77;;;13.10;49.90;;;;;;20929;6736;117270;-85
2022/11/06 11:19:34;;;;;;;4.47;4.27;;;13.00;50.40;;;;;;20897;6737;117462;-86
2022/11/06 11:22:19;;;;;;;5.40;4.90;;;12.90;50.80;;;;;;20693;6737;338736;-87
2022/11/06 11:24:58;;;;;;;4.50;4.30;;;13.10;49.70;;;;;;20992;6725;115965;-86
2022/11/06 11:27:37;;;;;;;4.10;3.90;;;13.20;50.00;;;;;;20907;6737;119238;-85
2022/11/06 11:30:22;;;;;;;3.83;3.63;;;13.10;50.50;;;;;;20829;6747;120738;-84
2022/11/06 11:32:56;;;;;;;4.50;4.30;;;13.00;50.40;;;;;;20693;6790;308929;-85
2022/11/06 11:35:34;;;;;;;4.50;4.30;;;13.30;49.70;;;;;;20747;6736;304855;-86
2022/11/06 11:38:11;;;;;;;4.87;4.68;;;13.70;48.00;;;;;;20667;6739;282775;-90
2022/11/06 11:40:48;;;;;;;4.00;3.80;;;14.00;46.90;;;;;;20808;6739;117595;-89
2022/11/06 11:43:24;;;;;;;3.77;3.57;;;13.50;48.20;;;;;;20934;6736;117008;-86
2022/11/06 11:46:19;;;;;;;;;;;;;;;;;;;;;
2022/11/06 11:48:48;;;;;;;4.87;4.68;;;13.60;47.80;;;;;;20691;6734;275506;-85
2022/11/06 11:51:43;;;;;;;4.53;4.23;;;13.90;47.30;;;;;;20854;6719;116946;-85
2022/11/06 11:54:19;;;;;;;4.50;4.20;;;13.90;47.80;;;;;;20982;6719;141156;-91
2022/11/06 11:57:01;;;;;;;4.50;4.30;;;13.70;48.60;;;;;;20962;6732;117867;-87
2022/11/06 11:59:43;;;;;;;4.53;4.33;;;13.50;49.10;;;;;;20942;6734;117014;-87
2022/11/06 12:02:28;;;;;;;4.30;4.10;;;13.30;49.40;;;;;;20925;6721;121540;-87
2022/11/06 12:05:17;;;;;;;4.97;4.77;;;13.30;49.90;;;;;;20704;6736;298352;-86
2022/11/06 12:07:52;;;;;;;5.47;5.17;;;13.50;49.30;;;;;;20699;6733;307359;-84
2022/11/06 12:10:31;;;;;;;4.53;4.33;;;13.90;48.30;;;;;;20870;6735;117296;-84
2022/11/06 12:13:20;;;;;;;4.90;4.60;;;14.00;48.50;;;;;;20974;6732;116576;-84
2022/11/06 12:16:09;;;;;;;4.77;4.53;;;13.80;48.90;;;;;;20727;6735;335113;-84
2022/11/06 12:18:44;;;;;;;4.70;4.40;;;14.00;48.10;;;;;;20932;6735;116047;-84
2022/11/06 12:21:23;;;;;;;4.80;4.60;;;14.00;48.50;;;;;;20531;6749;277568;-86
2022/11/06 12:24:01;;;;;;;4.83;4.47;;;14.10;48.30;;;;;;20855;6749;126340;-87
2022/11/06 12:26:40;;;;;;;4.47;4.27;;;14.10;48.60;;;;;;20897;6738;116586;-85
2022/11/06 12:29:16;;;;;;;5.00;4.70;;;14.00;49.00;;;;;;20792;6808;118426;-84
2022/11/06 12:32:04;;;;;;;4.10;3.90;;;13.80;49.30;;;;;;20699;6816;117839;-83
2022/11/06 12:34:53;;;;;;;4.60;4.40;;;13.70;49.60;;;;;;20982;6728;116888;-84
2022/11/06 12:37:55;;;;;;;4.93;4.65;;;13.60;50.00;;;;;;20773;6722;303398;-87
2022/11/06 12:40:34;;;;;;;4.62;4.43;;;13.80;49.70;;;;;;19975;6840;284849;-84
2022/11/06 12:43:16;;;;;;;5.20;4.90;;;14.20;48.30;;;;;;20984;6713;116997;-87
2022/11/06 12:46:10;;;;;;;4.30;4.10;;;14.20;48.40;;;;;;20962;6731;116834;-85
2022/11/06 12:49:18;;;;;;;4.60;4.40;;;13.90;48.70;;;;;;20688;6737;309237;-83
2022/11/06 12:52:15;;;;;;;4.40;4.20;;;14.00;47.40;;;;;;20753;6729;275055;-90
2022/11/06 12:55:16;;;;;;;4.80;4.60;;;14.30;47.40;;;;;;20636;6748;309368;-84
2022/11/06 12:58:06;;;;;;;4.50;4.20;;;14.30;48.10;;;;;;20954;6730;118828;-88
2022/11/06 13:00:44;;;;;;;4.53;4.33;;;14.30;47.40;;;;;;20671;6719;311397;-84
2022/11/06 13:03:39;;;;;;;3.90;3.70;;;14.40;46.90;;;;;;20976;6719;116918;-85
2022/11/06 13:06:15;;;;;;;3.93;3.73;;;14.20;47.40;;;;;;20987;6717;117770;-83
2022/11/06 13:09:14;;;;;;;3.83;3.63;;;13.90;48.10;;;;;;20953;6733;122152;-88
2022/11/06 13:11:59;;;;;;;4.40;4.20;;;13.70;48.80;;;;;;20547;6788;282678;-83
2022/11/06 13:15:17;;;;;;;4.17;3.90;;;14.00;49.80;;;;;;20908;6734;118785;-87
2022/11/06 13:17:54;;;;;;;4.20;4.00;;;14.00;49.30;;;;;;20995;6723;116668;-84
2022/11/06 13:20:32;;;;;;;3.83;3.63;;;13.80;49.60;;;;;;20834;6734;116291;-84
2022/11/06 13:23:14;;;;;;;4.50;4.30;;;13.70;50.00;;;;;;20713;6763;307101;-89
2022/11/06 13:26:10;;;;;;;3.70;3.50;;;13.90;50.00;;;;;;20715;6775;116365;-85
2022/11/06 13:28:48;;;;;;;4.35;4.15;;;14.00;50.10;;;;;;20741;6734;305353;-87
2022/11/06 13:31:21;;;;;;;4.30;4.10;;;14.20;49.60;;;;;;20665;6719;311197;-84
2022/11/06 13:33:57;;;;;;;3.90;3.70;;;14.50;49.00;;;;;;21026;6711;117747;-85
2022/11/06 13:36:32;;;;;;;4.32;4.12;;;14.40;49.10;;;;;;20815;6711;324050;-85
2022/11/06 13:39:17;;;;;;;4.20;3.90;;;14.50;49.10;;;;;;21028;6711;117237;-89
2022/11/06 13:41:52;;;;;;;4.30;4.10;;;14.40;49.30;;;;;;20832;6711;306945;-85
2022/11/06 13:44:28;;;;;;;4.20;4.00;;;14.40;48.80;;;;;;20814;6710;304592;-88
2022/11/06 13:47:03;;;;;;;4.07;3.87;;;14.70;48.30;;;;;;20832;6711;304165;-86
2022/11/06 13:49:59;;;;;;;4.12;3.92;;;14.80;47.70;;;;;;20800;6711;297637;-84
2022/11/06 13:52:48;;;;;;;3.90;3.70;;;15.00;47.60;;;;;;20773;6724;305643;-89
2022/11/06 13:55:23;;;;;;;3.70;3.50;;;15.10;47.20;;;;;;20880;6761;115962;-84
2022/11/06 13:58:22;;;;;;;3.80;3.60;;;14.80;47.70;;;;;;20646;6741;306562;-86